sensor_id;sensor_type;location;lat;lon;timestamp;pressure;altitude;pressure_sealevel;temperature;humidity
9325;BME280;4701;51.566;6.776;2023-12-14T06:01:56;-18215.00;;;5.93;100.00
9325;BME280;4701;51.566;6.776;2023-12-14T06:06:58;-18214.69;;;5.92;100.00
9325;BME280;4701;51.566;6.776;2023-12-14T06:12:00;-18215.00;;;5.93;100.00
9325;BME280;4701;51.566;6.776;2023-12-14T06:17:03;-18214.38;;;5.91;100.00
9325;BME280;4701;51.566;6.776;2023-12-14T06:22:05;-18214.06;;;5.90;100.00
9325;BME280;4701;51.566;6.776;2023-12-14T06:27:07;-18214.06;;;5.90;100.00
9325;BME280;4701;51.566;6.776;2023-12-14T06:32:10;-18213.63;;;5.88;100.00
9325;BME280;4701;51.566;6.776;2023-12-14T06:37:11;-18212.84;;;5.86;100.00
9325;BME280;4701;51.566;6.776;2023-12-14T06:42:13;-18212.25;;;5.84;100.00
9325;BME280;4701;51.566;6.776;2023-12-14T06:47:16;-18211.03;;;5.80;100.00
9325;BME280;4701;51.566;6.776;2023-12-14T06:52:17;-18210.13;;;5.77;100.00
9325;BME280;4701;51.566;6.776;2023-12-14T06:57:19;-18209.34;;;5.74;100.00
9325;BME280;4701;51.566;6.776;2023-12-14T07:02:22;-18208.28;;;5.70;100.00
9325;BME280;4701;51.566;6.776;2023-12-14T07:07:23;-18207.22;;;5.67;100.00
9325;BME280;4701;51.566;6.776;2023-12-14T07:12:25;-18206.44;;;5.64;100.00
9325;BME280;4701;51.566;6.776;2023-12-14T07:17:28;-18205.84;;;5.62;100.00
9325;BME280;4701;51.566;6.776;2023-12-14T07:22:30;-18205.09;;;5.60;100.00
9325;BME280;4701;51.566;6.776;2023-12-14T07:27:31;-18204.47;;;5.58;100.00
9325;BME280;4701;51.566;6.776;2023-12-14T15:34:49;-18168.19;;;4.37;100.00
9325;BME280;4701;51.566;6.776;2023-12-14T15:39:51;-18169.88;;;4.43;100.00
9325;BME280;4701;51.566;6.776;2023-12-14T15:44:54;-18171.41;;;4.48;100.00
9325;BME280;4701;51.566;6.776;2023-12-14T15:49:57;-18172.63;;;4.52;100.00
9325;BME280;4701;51.566;6.776;2023-12-14T15:54:58;-18173.69;;;4.55;100.00
9325;BME280;4701;51.566;6.776;2023-12-14T16:00:00;-18175.06;;;4.60;100.00
9325;BME280;4701;51.566;6.776;2023-12-14T16:05:04;-18176.13;;;4.64;100.00
9325;BME280;4701;51.566;6.776;2023-12-14T16:10:08;-18176.44;;;4.65;100.00
9325;BME280;4701;51.566;6.776;2023-12-14T16:15:10;-18177.34;;;4.68;100.00
9325;BME280;4701;51.566;6.776;2023-12-14T16:20:13;-18178.09;;;4.70;100.00
9325;BME280;4701;51.566;6.776;2023-12-14T16:25:16;-18178.41;;;4.71;100.00
9325;BME280;4701;51.566;6.776;2023-12-14T16:30:18;-18178.72;;;4.72;100.00
9325;BME280;4701;51.566;6.776;2023-12-14T16:35:21;-18179.03;;;4.73;100.00
9325;BME280;4701;51.566;6.776;2023-12-14T16:40:23;-18179.19;;;4.74;100.00
9325;BME280;4701;51.566;6.776;2023-12-14T16:45:24;-18179.03;;;4.73;100.00
9325;BME280;4701;51.566;6.776;2023-12-14T16:50:27;-18179.63;;;4.75;100.00
9325;BME280;4701;51.566;6.776;2023-12-14T16:55:29;-18179.63;;;4.75;100.00
9325;BME280;4701;51.566;6.776;2023-12-14T17:00:31;-18180.09;;;4.77;100.00
9325;BME280;4701;51.566;6.776;2023-12-14T17:05:34;-18181.16;;;4.80;100.00
9325;BME280;4701;51.566;6.776;2023-12-14T17:10:35;-18181.00;;;4.80;100.00
9325;BME280;4701;51.566;6.776;2023-12-14T17:15:37;-18180.84;;;4.79;100.00
9325;BME280;4701;51.566;6.776;2023-12-14T17:20:40;-18180.69;;;4.79;100.00
9325;BME280;4701;51.566;6.776;2023-12-14T17:25:43;-18179.94;;;4.76;100.00
9325;BME280;4701;51.566;6.776;2023-12-14T17:30:44;-18179.19;;;4.74;100.00
9325;BME280;4701;51.566;6.776;2023-12-14T17:35:47;-18178.88;;;4.73;100.00
9325;BME280;4701;51.566;6.776;2023-12-14T17:40:49;-18177.97;;;4.70;100.00
9325;BME280;4701;51.566;6.776;2023-12-14T17:45:50;-18177.50;;;4.68;100.00
9325;BME280;4701;51.566;6.776;2023-12-14T17:50:54;-18177.19;;;4.67;100.00
9325;BME280;4701;51.566;6.776;2023-12-14T17:55:57;-18176.59;;;4.65;100.00
9325;BME280;4701;51.566;6.776;2023-12-14T18:00:58;-18176.59;;;4.65;100.00
9325;BME280;4701;51.566;6.776;2023-12-14T18:06:04;-18176.28;;;4.64;100.00
9325;BME280;4701;51.566;6.776;2023-12-14T18:11:06;-18176.13;;;4.64;100.00
9325;BME280;4701;51.566;6.776;2023-12-14T18:16:08;-18175.97;;;4.63;100.00
9325;BME280;4701;51.566;6.776;2023-12-14T18:21:11;-18175.50;;;4.62;100.00
9325;BME280;4701;51.566;6.776;2023-12-14T18:26:13;-18174.59;;;4.59;100.00
9325;BME280;4701;51.566;6.776;2023-12-14T18:31:14;-18174.44;;;4.58;100.00
9325;BME280;4701;51.566;6.776;2023-12-14T18:36:18;-18173.84;;;4.56;100.00
9325;BME280;4701;51.566;6.776;2023-12-14T18:41:20;-18173.38;;;4.54;100.00
9325;BME280;4701;51.566;6.776;2023-12-14T18:46:21;-18172.78;;;4.52;100.00
9325;BME280;4701;51.566;6.776;2023-12-14T18:51:24;-18171.25;;;4.47;100.00
9325;BME280;4701;51.566;6.776;2023-12-14T18:56:26;-18169.88;;;4.43;100.00
9325;BME280;4701;51.566;6.776;2023-12-14T19:01:27;-18168.66;;;4.39;100.00
9325;BME280;4701;51.566;6.776;2023-12-14T19:06:30;-18167.59;;;4.35;100.00
9325;BME280;4701;51.566;6.776;2023-12-14T19:11:32;-18166.69;;;4.32;100.00
9325;BME280;4701;51.566;6.776;2023-12-14T19:16:34;-18166.22;;;4.31;100.00
9325;BME280;4701;51.566;6.776;2023-12-14T19:21:37;-18165.91;;;4.30;100.00
9325;BME280;4701;51.566;6.776;2023-12-14T19:26:38;-18165.59;;;4.29;100.00
9325;BME280;4701;51.566;6.776;2023-12-14T19:31:40;-18165.75;;;4.29;100.00
9325;BME280;4701;51.566;6.776;2023-12-14T19:36:43;-18166.38;;;4.31;100.00
9325;BME280;4701;51.566;6.776;2023-12-14T19:41:45;-18166.97;;;4.33;100.00
9325;BME280;4701;51.566;6.776;2023-12-14T19:46:47;-18167.75;;;4.36;100.00
9325;BME280;4701;51.566;6.776;2023-12-14T19:51:50;-18168.50;;;4.38;100.00
9325;BME280;4701;51.566;6.776;2023-12-14T19:56:52;-18169.28;;;4.41;100.00
9325;BME280;4701;51.566;6.776;2023-12-14T20:01:53;-18170.19;;;4.44;100.00
9325;BME280;4701;51.566;6.776;2023-12-14T20:06:56;-18170.94;;;4.46;100.00
9325;BME280;4701;51.566;6.776;2023-12-14T20:11:58;-18171.41;;;4.48;100.00
9325;BME280;4701;51.566;6.776;2023-12-14T20:17:00;-18172.31;;;4.51;100.00
9325;BME280;4701;51.566;6.776;2023-12-14T20:22:03;-18172.78;;;4.52;100.00
9325;BME280;4701;51.566;6.776;2023-12-14T20:27:05;-18173.22;;;4.54;100.00
9325;BME280;4701;51.566;6.776;2023-12-14T20:32:06;-18173.69;;;4.55;100.00
9325;BME280;4701;51.566;6.776;2023-12-14T20:37:09;-18174.00;;;4.56;100.00
9325;BME280;4701;51.566;6.776;2023-12-14T20:42:11;-18174.91;;;4.60;100.00
9325;BME280;4701;51.566;6.776;2023-12-14T20:47:12;-18175.38;;;4.61;100.00
9325;BME280;4701;51.566;6.776;2023-12-14T20:52:15;-18176.13;;;4.64;100.00
9325;BME280;4701;51.566;6.776;2023-12-14T20:57:17;-18176.88;;;4.66;100.00
9325;BME280;4701;51.566;6.776;2023-12-14T21:02:19;-18177.50;;;4.68;100.00
9325;BME280;4701;51.566;6.776;2023-12-14T21:07:22;-18177.66;;;4.69;100.00
9325;BME280;4701;51.566;6.776;2023-12-14T21:12:24;-18178.56;;;4.72;100.00
9325;BME280;4701;51.566;6.776;2023-12-14T21:17:25;-18179.03;;;4.73;100.00
9325;BME280;4701;51.566;6.776;2023-12-14T21:22:28;-18179.63;;;4.75;100.00
9325;BME280;4701;51.566;6.776;2023-12-14T21:27:30;-18180.25;;;4.77;100.00
